sensor_id;sensor_type;location;lat;lon;timestamp;pressure;altitude;pressure_sealevel;temperature;humidity
9415;BME280;4746;35.664;139.738;2023-08-01T00:00:57;100182.78;;;35.41;48.11
9415;BME280;4746;35.664;139.738;2023-08-01T00:03:24;100181.63;;;35.53;47.84
9415;BME280;4746;35.664;139.738;2023-08-01T00:05:52;100185.47;;;35.68;47.29
9415;BME280;4746;35.664;139.738;2023-08-01T00:08:22;100191.53;;;35.87;47.46
9415;BME280;4746;35.664;139.738;2023-08-01T00:10:49;100192.28;;;36.07;46.95
9415;BME280;4746;35.664;139.738;2023-08-01T00:13:17;100180.50;;;36.26;46.66
9415;BME280;4746;35.664;139.738;2023-08-01T00:15:44;100183.50;;;36.41;45.83
9415;BME280;4746;35.664;139.738;2023-08-01T00:18:12;100179.16;;;36.57;46.16
9415;BME280;4746;35.664;139.738;2023-08-01T00:20:39;100183.81;;;36.55;45.51
9415;BME280;4746;35.664;139.738;2023-08-01T00:23:08;100182.25;;;36.70;45.65
9415;BME280;4746;35.664;139.738;2023-08-01T00:25:35;100183.03;;;36.80;45.07
9415;BME280;4746;35.664;139.738;2023-08-01T00:28:03;100174.31;;;36.95;45.27
9415;BME280;4746;35.664;139.738;2023-08-01T00:30:30;100179.31;;;37.16;45.22
9415;BME280;4746;35.664;139.738;2023-08-01T00:32:58;100177.44;;;37.34;45.21
9415;BME280;4746;35.664;139.738;2023-08-01T00:35:25;100175.84;;;37.49;44.53
9415;BME280;4746;35.664;139.738;2023-08-01T00:37:53;100163.50;;;37.63;44.28
9415;BME280;4746;35.664;139.738;2023-08-01T00:40:20;100156.91;;;37.75;44.09
9415;BME280;4746;35.664;139.738;2023-08-01T00:42:48;100158.97;;;37.89;44.15
9415;BME280;4746;35.664;139.738;2023-08-01T00:45:22;100163.53;;;38.05;43.72
9415;BME280;4746;35.664;139.738;2023-08-01T00:47:54;100172.59;;;38.20;43.04
9415;BME280;4746;35.664;139.738;2023-08-01T00:50:23;100180.84;;;38.42;42.72
9415;BME280;4746;35.664;139.738;2023-08-01T00:52:54;100195.09;;;38.58;42.73
9415;BME280;4746;35.664;139.738;2023-08-01T00:55:24;100184.56;;;38.65;42.02
9415;BME280;4746;35.664;139.738;2023-08-01T00:57:53;100188.59;;;38.77;41.85
9415;BME280;4746;35.664;139.738;2023-08-01T01:00:21;100185.25;;;38.91;41.97
9415;BME280;4746;35.664;139.738;2023-08-01T01:02:49;100188.44;;;39.02;41.14
9415;BME280;4746;35.664;139.738;2023-08-01T01:05:16;100194.13;;;39.15;40.76
9415;BME280;4746;35.664;139.738;2023-08-01T01:07:45;100201.47;;;39.21;40.27
9415;BME280;4746;35.664;139.738;2023-08-01T01:10:12;100193.94;;;39.24;39.46
9415;BME280;4746;35.664;139.738;2023-08-01T01:12:40;100196.94;;;39.29;39.02
9415;BME280;4746;35.664;139.738;2023-08-01T01:15:08;100180.13;;;39.43;39.35
9415;BME280;4746;35.664;139.738;2023-08-01T01:17:35;100178.09;;;39.53;38.59
9415;BME280;4746;35.664;139.738;2023-08-01T01:20:03;100176.41;;;39.60;38.62
9415;BME280;4746;35.664;139.738;2023-08-01T01:22:32;100183.41;;;39.69;38.62
9415;BME280;4746;35.664;139.738;2023-08-01T01:25:02;100180.00;;;39.83;38.69
9415;BME280;4746;35.664;139.738;2023-08-01T01:27:31;100174.75;;;39.97;38.36
9415;BME280;4746;35.664;139.738;2023-08-01T01:30:02;100167.78;;;40.11;38.42
9415;BME280;4746;35.664;139.738;2023-08-01T01:32:31;100162.34;;;40.19;38.54
9415;BME280;4746;35.664;139.738;2023-08-01T01:35:00;100156.63;;;40.22;38.58
9415;BME280;4746;35.664;139.738;2023-08-01T01:37:28;100154.91;;;40.29;38.18
9415;BME280;4746;35.664;139.738;2023-08-01T01:39:55;100167.19;;;40.23;37.54
9415;BME280;4746;35.664;139.738;2023-08-01T01:42:23;100150.84;;;40.10;38.05
9415;BME280;4746;35.664;139.738;2023-08-01T01:44:50;100151.75;;;39.95;38.70
9415;BME280;4746;35.664;139.738;2023-08-01T01:47:18;100151.94;;;39.93;38.58
9415;BME280;4746;35.664;139.738;2023-08-01T01:49:46;100155.81;;;39.91;38.85
9415;BME280;4746;35.664;139.738;2023-08-01T01:52:13;100153.78;;;39.93;38.77
9415;BME280;4746;35.664;139.738;2023-08-01T01:54:41;100152.31;;;39.82;38.91
9415;BME280;4746;35.664;139.738;2023-08-01T01:57:08;100144.41;;;39.81;38.83
9415;BME280;4746;35.664;139.738;2023-08-01T01:59:36;100144.41;;;39.81;38.82
9415;BME280;4746;35.664;139.738;2023-08-01T02:02:03;100151.84;;;39.79;39.09
9415;BME280;4746;35.664;139.738;2023-08-01T02:04:31;100148.97;;;39.80;38.94
9415;BME280;4746;35.664;139.738;2023-08-01T02:06:58;100142.22;;;39.84;39.30
9415;BME280;4746;35.664;139.738;2023-08-01T02:09:26;100139.41;;;39.78;39.29
9415;BME280;4746;35.664;139.738;2023-08-01T02:11:53;100149.78;;;39.81;39.30
9415;BME280;4746;35.664;139.738;2023-08-01T02:14:21;100146.47;;;39.79;39.32
9415;BME280;4746;35.664;139.738;2023-08-01T02:16:48;100151.84;;;39.79;38.92
9415;BME280;4746;35.664;139.738;2023-08-01T02:19:16;100154.16;;;39.82;39.27
9415;BME280;4746;35.664;139.738;2023-08-01T02:21:43;100153.78;;;39.93;39.48
9415;BME280;4746;35.664;139.738;2023-08-01T02:24:11;100141.44;;;40.06;39.01
9415;BME280;4746;35.664;139.738;2023-08-01T02:26:38;100138.19;;;40.19;39.23
9415;BME280;4746;35.664;139.738;2023-08-01T02:29:06;100140.00;;;40.18;38.91
9415;BME280;4746;35.664;139.738;2023-08-01T02:31:33;100137.47;;;40.25;39.04
9415;BME280;4746;35.664;139.738;2023-08-01T02:34:02;100129.41;;;40.25;38.81
9415;BME280;4746;35.664;139.738;2023-08-01T02:36:29;100123.72;;;40.20;38.77
9415;BME280;4746;35.664;139.738;2023-08-01T02:38:57;100116.31;;;40.22;38.86
9415;BME280;4746;35.664;139.738;2023-08-01T02:41:24;100118.69;;;40.17;38.41
9415;BME280;4746;35.664;139.738;2023-08-01T02:43:52;100124.78;;;40.11;39.00
9415;BME280;4746;35.664;139.738;2023-08-01T02:46:19;100118.13;;;40.07;39.25
9415;BME280;4746;35.664;139.738;2023-08-01T02:48:47;100118.44;;;40.04;38.90
9415;BME280;4746;35.664;139.738;2023-08-01T02:51:15;100114.84;;;39.97;38.86
9415;BME280;4746;35.664;139.738;2023-08-01T02:53:42;100112.16;;;39.97;39.00
9415;BME280;4746;35.664;139.738;2023-08-01T02:56:10;100108.78;;;39.95;39.22
9415;BME280;4746;35.664;139.738;2023-08-01T02:58:37;100122.91;;;39.97;38.91
9415;BME280;4746;35.664;139.738;2023-08-01T03:01:08;100130.00;;;39.74;38.16
9415;BME280;4746;35.664;139.738;2023-08-01T03:03:39;100116.47;;;39.21;37.56
9415;BME280;4746;35.664;139.738;2023-08-01T03:06:08;100130.78;;;38.50;37.43
9415;BME280;4746;35.664;139.738;2023-08-01T03:08:35;100125.34;;;37.95;38.01
9415;BME280;4746;35.664;139.738;2023-08-01T03:11:03;100113.47;;;37.48;38.07
9415;BME280;4746;35.664;139.738;2023-08-01T03:13:32;100106.44;;;37.14;38.37
9415;BME280;4746;35.664;139.738;2023-08-01T03:16:02;100099.94;;;36.91;38.55
9415;BME280;4746;35.664;139.738;2023-08-01T03:18:31;100109.75;;;36.65;38.66
9415;BME280;4746;35.664;139.738;2023-08-01T03:20:58;100106.44;;;36.46;38.72
9415;BME280;4746;35.664;139.738;2023-08-01T03:23:26;100085.09;;;36.28;38.33
9415;BME280;4746;35.664;139.738;2023-08-01T03:25:53;100076.47;;;36.00;38.50
9415;BME280;4746;35.664;139.738;2023-08-01T03:28:21;100094.19;;;35.74;39.23
9415;BME280;4746;35.664;139.738;2023-08-01T03:30:51;100118.75;;;35.50;39.69
9415;BME280;4746;35.664;139.738;2023-08-01T03:33:21;100151.09;;;35.29;40.26
9415;BME280;4746;35.664;139.738;2023-08-01T03:35:48;100151.72;;;35.04;40.71
9415;BME280;4746;35.664;139.738;2023-08-01T03:38:16;100170.84;;;34.80;42.21
9415;BME280;4746;35.664;139.738;2023-08-01T03:40:43;100189.88;;;34.29;44.63
9415;BME280;4746;35.664;139.738;2023-08-01T03:43:11;100220.63;;;33.43;46.12
9415;BME280;4746;35.664;139.738;2023-08-01T03:45:39;100206.59;;;32.40;48.62
9415;BME280;4746;35.664;139.738;2023-08-01T03:48:06;100200.03;;;31.47;50.97
9415;BME280;4746;35.664;139.738;2023-08-01T03:50:33;100181.34;;;30.70;52.73
9415;BME280;4746;35.664;139.738;2023-08-01T03:53:01;100200.66;;;30.13;54.00
9415;BME280;4746;35.664;139.738;2023-08-01T03:55:28;100216.41;;;29.79;53.84
9415;BME280;4746;35.664;139.738;2023-08-01T03:57:56;100233.44;;;29.62;54.73
9415;BME280;4746;35.664;139.738;2023-08-01T04:00:23;100276.66;;;29.49;55.29
9415;BME280;4746;35.664;139.738;2023-08-01T04:02:51;100263.22;;;29.27;54.93
9415;BME280;4746;35.664;139.738;2023-08-01T04:05:18;100188.63;;;29.11;51.68
9415;BME280;4746;35.664;139.738;2023-08-01T04:07:46;100091.03;;;29.22;52.79
9415;BME280;4746;35.664;139.738;2023-08-01T04:10:13;100024.19;;;29.34;52.86
9415;BME280;4746;35.664;139.738;2023-08-01T04:12:41;100007.00;;;29.52;51.25
9415;BME280;4746;35.664;139.738;2023-08-01T04:15:10;100000.88;;;29.75;50.46
9415;BME280;4746;35.664;139.738;2023-08-01T04:17:37;99998.38;;;29.97;49.43
9415;BME280;4746;35.664;139.738;2023-08-01T04:20:09;99987.59;;;30.22;48.70
9415;BME280;4746;35.664;139.738;2023-08-01T04:22:37;99963.38;;;30.38;48.18
9415;BME280;4746;35.664;139.738;2023-08-01T04:25:05;99935.72;;;30.53;48.34
9415;BME280;4746;35.664;139.738;2023-08-01T04:27:32;99932.84;;;30.67;47.65
9415;BME280;4746;35.664;139.738;2023-08-01T04:30:00;99935.22;;;30.81;47.22
9415;BME280;4746;35.664;139.738;2023-08-01T04:32:28;99953.72;;;30.92;47.23
9415;BME280;4746;35.664;139.738;2023-08-01T04:34:55;99975.19;;;31.00;46.99
9415;BME280;4746;35.664;139.738;2023-08-01T04:37:23;99966.47;;;31.09;46.77
9415;BME280;4746;35.664;139.738;2023-08-01T04:39:50;99966.50;;;31.20;45.48
9415;BME280;4746;35.664;139.738;2023-08-01T04:42:18;99962.72;;;31.33;45.19
9415;BME280;4746;35.664;139.738;2023-08-01T04:44:48;99975.78;;;31.46;45.48
9415;BME280;4746;35.664;139.738;2023-08-01T04:47:15;99998.06;;;31.54;45.30
9415;BME280;4746;35.664;139.738;2023-08-01T04:49:43;100034.53;;;31.62;45.33
9415;BME280;4746;35.664;139.738;2023-08-01T04:52:10;100040.56;;;31.64;46.13
9415;BME280;4746;35.664;139.738;2023-08-01T04:54:38;100027.06;;;31.67;45.87
9415;BME280;4746;35.664;139.738;2023-08-01T04:57:06;100039.94;;;31.71;46.88
9415;BME280;4746;35.664;139.738;2023-08-01T04:59:33;100054.72;;;31.73;46.43
9415;BME280;4746;35.664;139.738;2023-08-01T05:02:01;100073.78;;;31.78;45.90
9415;BME280;4746;35.664;139.738;2023-08-01T05:04:28;100099.31;;;31.79;46.50
9415;BME280;4746;35.664;139.738;2023-08-01T05:06:56;100121.00;;;31.84;46.11
9415;BME280;4746;35.664;139.738;2023-08-01T05:09:23;100120.75;;;31.87;46.81
9415;BME280;4746;35.664;139.738;2023-08-01T05:11:50;100113.50;;;31.89;47.40
9415;BME280;4746;35.664;139.738;2023-08-01T05:14:18;100117.84;;;31.90;46.86
9415;BME280;4746;35.664;139.738;2023-08-01T05:16:46;100119.66;;;31.90;48.26
9415;BME280;4746;35.664;139.738;2023-08-01T05:19:13;100124.63;;;31.83;48.97
9415;BME280;4746;35.664;139.738;2023-08-01T05:21:41;100130.41;;;31.77;49.66
9415;BME280;4746;35.664;139.738;2023-08-01T05:24:08;100135.34;;;31.71;50.09
9415;BME280;4746;35.664;139.738;2023-08-01T05:26:38;100133.31;;;31.64;50.80
9415;BME280;4746;35.664;139.738;2023-08-01T05:29:05;100118.88;;;31.57;51.47
9415;BME280;4746;35.664;139.738;2023-08-01T05:31:33;100106.13;;;31.51;51.72
9415;BME280;4746;35.664;139.738;2023-08-01T05:34:00;100089.84;;;31.44;52.27
9415;BME280;4746;35.664;139.738;2023-08-01T05:36:28;100085.16;;;31.37;52.46
9415;BME280;4746;35.664;139.738;2023-08-01T05:38:58;100069.50;;;31.34;52.22
9415;BME280;4746;35.664;139.738;2023-08-01T05:41:25;100037.97;;;31.31;53.11
9415;BME280;4746;35.664;139.738;2023-08-01T05:43:53;100026.66;;;31.29;52.71
9415;BME280;4746;35.664;139.738;2023-08-01T05:46:21;100025.91;;;31.27;53.30
9415;BME280;4746;35.664;139.738;2023-08-01T05:48:49;100005.47;;;31.29;53.71
9415;BME280;4746;35.664;139.738;2023-08-01T05:51:16;100022.78;;;31.33;53.32
9415;BME280;4746;35.664;139.738;2023-08-01T05:53:44;100047.59;;;31.32;53.68
9415;BME280;4746;35.664;139.738;2023-08-01T05:56:11;100041.94;;;31.25;53.73
9415;BME280;4746;35.664;139.738;2023-08-01T05:58:39;100035.09;;;31.23;53.83
9415;BME280;4746;35.664;139.738;2023-08-01T06:01:07;100044.00;;;31.22;54.12
9415;BME280;4746;35.664;139.738;2023-08-01T06:03:35;100042.44;;;31.19;54.37
9415;BME280;4746;35.664;139.738;2023-08-01T06:06:03;100030.06;;;31.20;54.58
9415;BME280;4746;35.664;139.738;2023-08-01T06:08:31;100032.69;;;31.20;54.40
9415;BME280;4746;35.664;139.738;2023-08-01T06:10:59;100057.13;;;31.23;54.48
9415;BME280;4746;35.664;139.738;2023-08-01T06:13:27;100062.31;;;31.25;54.97
9415;BME280;4746;35.664;139.738;2023-08-01T06:15:55;100043.75;;;31.25;55.02
9415;BME280;4746;35.664;139.738;2023-08-01T06:18:23;100033.88;;;31.27;54.92
9415;BME280;4746;35.664;139.738;2023-08-01T06:20:50;100017.88;;;31.28;54.86
9415;BME280;4746;35.664;139.738;2023-08-01T06:23:18;100017.47;;;31.33;54.28
9415;BME280;4746;35.664;139.738;2023-08-01T06:25:46;100022.06;;;31.42;54.56
9415;BME280;4746;35.664;139.738;2023-08-01T06:28:15;100005.06;;;31.44;54.65
9415;BME280;4746;35.664;139.738;2023-08-01T06:30:43;100002.88;;;31.49;53.54
9415;BME280;4746;35.664;139.738;2023-08-01T06:33:10;100002.41;;;31.55;53.24
9415;BME280;4746;35.664;139.738;2023-08-01T06:35:38;100000.47;;;31.57;52.81
9415;BME280;4746;35.664;139.738;2023-08-01T06:38:06;100013.00;;;31.55;52.68
9415;BME280;4746;35.664;139.738;2023-08-01T06:40:36;100026.84;;;31.48;52.80
9415;BME280;4746;35.664;139.738;2023-08-01T06:43:04;100022.53;;;31.36;52.80
9415;BME280;4746;35.664;139.738;2023-08-01T06:45:32;100006.56;;;31.26;53.07
9415;BME280;4746;35.664;139.738;2023-08-01T06:47:59;100010.78;;;31.18;52.87
9415;BME280;4746;35.664;139.738;2023-08-01T06:50:27;99992.00;;;31.10;53.34
9415;BME280;4746;35.664;139.738;2023-08-01T06:52:54;100001.16;;;31.06;52.68
9415;BME280;4746;35.664;139.738;2023-08-01T06:55:22;99998.28;;;30.98;53.05
9415;BME280;4746;35.664;139.738;2023-08-01T06:57:49;100003.81;;;30.84;53.29
9415;BME280;4746;35.664;139.738;2023-08-01T07:00:17;99987.69;;;30.76;52.89
9415;BME280;4746;35.664;139.738;2023-08-01T07:02:45;99987.44;;;30.68;52.93
9415;BME280;4746;35.664;139.738;2023-08-01T07:05:12;99984.91;;;30.67;53.34
9415;BME280;4746;35.664;139.738;2023-08-01T07:07:40;99987.22;;;30.71;53.19
9415;BME280;4746;35.664;139.738;2023-08-01T07:10:08;99995.88;;;30.73;53.21
9415;BME280;4746;35.664;139.738;2023-08-01T07:12:35;99978.31;;;30.72;52.83
9415;BME280;4746;35.664;139.738;2023-08-01T07:15:03;99989.25;;;30.79;52.86
9415;BME280;4746;35.664;139.738;2023-08-01T07:17:31;100001.38;;;30.92;53.43
9415;BME280;4746;35.664;139.738;2023-08-01T07:19:59;99997.91;;;31.13;52.95
9415;BME280;4746;35.664;139.738;2023-08-01T07:22:26;99985.47;;;31.36;52.40
9415;BME280;4746;35.664;139.738;2023-08-01T07:24:56;99974.06;;;31.67;52.13
9415;BME280;4746;35.664;139.738;2023-08-01T07:27:23;99962.38;;;34.33;48.06
9415;BME280;4746;35.664;139.738;2023-08-01T07:29:51;99969.81;;;37.41;42.50
9415;BME280;4746;35.664;139.738;2023-08-01T07:32:18;99982.25;;;39.45;37.07
9415;BME280;4746;35.664;139.738;2023-08-01T07:34:46;99989.53;;;39.81;35.92
9415;BME280;4746;35.664;139.738;2023-08-01T07:37:13;99984.97;;;40.27;35.24
9415;BME280;4746;35.664;139.738;2023-08-01T07:39:40;99994.91;;;39.81;35.08
9415;BME280;4746;35.664;139.738;2023-08-01T07:42:08;100002.56;;;39.09;36.08
9415;BME280;4746;35.664;139.738;2023-08-01T07:44:35;99982.75;;;39.71;34.55
9415;BME280;4746;35.664;139.738;2023-08-01T07:47:03;99993.03;;;39.29;35.02
9415;BME280;4746;35.664;139.738;2023-08-01T07:49:31;99997.06;;;40.31;33.35
9415;BME280;4746;35.664;139.738;2023-08-01T07:51:58;100002.69;;;39.16;34.50
9415;BME280;4746;35.664;139.738;2023-08-01T07:54:26;100002.72;;;37.98;35.91
9415;BME280;4746;35.664;139.738;2023-08-01T07:56:53;100002.13;;;37.06;37.52
9415;BME280;4746;35.664;139.738;2023-08-01T07:59:21;100023.69;;;36.11;38.90
9415;BME280;4746;35.664;139.738;2023-08-01T08:01:48;100016.88;;;35.20;40.21
9415;BME280;4746;35.664;139.738;2023-08-01T08:04:16;100030.16;;;34.48;42.42
9415;BME280;4746;35.664;139.738;2023-08-01T08:06:44;100047.41;;;33.96;43.49
9415;BME280;4746;35.664;139.738;2023-08-01T08:09:11;100072.28;;;33.58;44.25
9415;BME280;4746;35.664;139.738;2023-08-01T08:11:39;100064.97;;;33.11;45.24
9415;BME280;4746;35.664;139.738;2023-08-01T08:14:06;100066.31;;;32.76;46.51
9415;BME280;4746;35.664;139.738;2023-08-01T08:16:35;100076.72;;;32.47;47.18
9415;BME280;4746;35.664;139.738;2023-08-01T08:19:02;100087.91;;;32.31;47.49
9415;BME280;4746;35.664;139.738;2023-08-01T08:21:29;100101.84;;;32.23;48.01
9415;BME280;4746;35.664;139.738;2023-08-01T08:23:57;100124.41;;;32.18;48.71
9415;BME280;4746;35.664;139.738;2023-08-01T08:26:24;100143.00;;;32.07;48.59
9415;BME280;4746;35.664;139.738;2023-08-01T08:28:52;100143.16;;;31.94;49.12
9415;BME280;4746;35.664;139.738;2023-08-01T08:31:19;100153.97;;;31.91;49.20
9415;BME280;4746;35.664;139.738;2023-08-01T08:33:48;100159.28;;;31.91;49.12
9415;BME280;4746;35.664;139.738;2023-08-01T08:36:16;100178.84;;;31.90;49.05
9415;BME280;4746;35.664;139.738;2023-08-01T08:38:44;100193.28;;;31.86;49.21
9415;BME280;4746;35.664;139.738;2023-08-01T08:41:20;100184.88;;;31.81;49.55
9415;BME280;4746;35.664;139.738;2023-08-01T08:43:49;100176.66;;;31.73;49.39
9415;BME280;4746;35.664;139.738;2023-08-01T08:46:22;100160.09;;;31.61;49.33
9415;BME280;4746;35.664;139.738;2023-08-01T08:48:51;100156.09;;;31.55;49.69
9415;BME280;4746;35.664;139.738;2023-08-01T08:51:20;100143.09;;;31.63;49.50
9415;BME280;4746;35.664;139.738;2023-08-01T08:53:51;100141.28;;;31.64;49.78
9415;BME280;4746;35.664;139.738;2023-08-01T08:56:21;100137.69;;;31.54;49.90
9415;BME280;4746;35.664;139.738;2023-08-01T08:58:50;100134.91;;;31.55;49.70
9415;BME280;4746;35.664;139.738;2023-08-01T09:01:18;100134.25;;;31.73;49.46
9415;BME280;4746;35.664;139.738;2023-08-01T09:03:46;100112.56;;;31.79;48.94
9415;BME280;4746;35.664;139.738;2023-08-01T09:06:23;100115.44;;;31.87;49.33
9415;BME280;4746;35.664;139.738;2023-08-01T09:09:09;100109.53;;;31.84;49.39
9415;BME280;4746;35.664;139.738;2023-08-01T09:11:49;100105.78;;;31.86;49.41
9415;BME280;4746;35.664;139.738;2023-08-01T09:14:18;100094.69;;;31.92;49.20
9415;BME280;4746;35.664;139.738;2023-08-01T09:16:47;100102.13;;;31.98;49.01
9415;BME280;4746;35.664;139.738;2023-08-01T09:19:25;100101.44;;;32.07;49.06
9415;BME280;4746;35.664;139.738;2023-08-01T09:21:54;100101.66;;;32.04;48.65
9415;BME280;4746;35.664;139.738;2023-08-01T09:24:22;100112.75;;;31.98;48.61
9415;BME280;4746;35.664;139.738;2023-08-01T09:26:50;100126.25;;;32.06;48.63
9415;BME280;4746;35.664;139.738;2023-08-01T09:29:19;100134.69;;;32.11;48.86
9415;BME280;4746;35.664;139.738;2023-08-01T09:31:47;100143.38;;;32.13;48.95
9415;BME280;4746;35.664;139.738;2023-08-01T09:34:21;100150.31;;;32.14;48.96
9415;BME280;4746;35.664;139.738;2023-08-01T09:36:49;100154.94;;;32.12;48.98
9415;BME280;4746;35.664;139.738;2023-08-01T09:39:20;100140.13;;;32.10;48.52
9415;BME280;4746;35.664;139.738;2023-08-01T09:42:08;100152.50;;;32.09;48.22
9415;BME280;4746;35.664;139.738;2023-08-01T09:44:36;100145.38;;;32.21;48.73
9415;BME280;4746;35.664;139.738;2023-08-01T09:47:05;100147.06;;;32.22;48.28
9415;BME280;4746;35.664;139.738;2023-08-01T09:49:49;100146.56;;;32.28;48.54
9415;BME280;4746;35.664;139.738;2023-08-01T09:52:30;100149.31;;;32.26;48.69
9415;BME280;4746;35.664;139.738;2023-08-01T09:54:58;100139.97;;;32.11;48.78
9415;BME280;4746;35.664;139.738;2023-08-01T09:57:30;100145.78;;;32.05;49.24
9415;BME280;4746;35.664;139.738;2023-08-01T09:59:59;100143.59;;;31.99;49.01
9415;BME280;4746;35.664;139.738;2023-08-01T10:02:30;100140.63;;;31.93;49.23
9415;BME280;4746;35.664;139.738;2023-08-01T10:05:01;100154.25;;;31.88;49.32
9415;BME280;4746;35.664;139.738;2023-08-01T10:07:32;100155.22;;;31.87;49.08
9415;BME280;4746;35.664;139.738;2023-08-01T10:10:01;100158.81;;;31.86;49.70
9415;BME280;4746;35.664;139.738;2023-08-01T10:12:31;100161.34;;;31.88;49.54
9415;BME280;4746;35.664;139.738;2023-08-01T10:14:59;100164.84;;;31.88;49.44
9415;BME280;4746;35.664;139.738;2023-08-01T10:17:28;100166.53;;;31.89;49.46
9415;BME280;4746;35.664;139.738;2023-08-01T10:19:59;100168.22;;;31.90;49.38
9415;BME280;4746;35.664;139.738;2023-08-01T10:22:28;100175.19;;;31.91;49.36
9415;BME280;4746;35.664;139.738;2023-08-01T10:24:56;100181.22;;;31.93;49.63
9415;BME280;4746;35.664;139.738;2023-08-01T10:27:23;100179.31;;;31.95;49.90
9415;BME280;4746;35.664;139.738;2023-08-01T10:30:02;100187.97;;;32.19;49.45
9415;BME280;4746;35.664;139.738;2023-08-01T10:32:39;100190.59;;;32.19;49.39
9415;BME280;4746;35.664;139.738;2023-08-01T10:35:08;100188.31;;;32.15;49.58
9415;BME280;4746;35.664;139.738;2023-08-01T10:37:46;100200.03;;;32.12;49.12
9415;BME280;4746;35.664;139.738;2023-08-01T10:40:16;100203.63;;;32.11;49.31
9415;BME280;4746;35.664;139.738;2023-08-01T10:42:47;100201.72;;;32.13;49.84
9415;BME280;4746;35.664;139.738;2023-08-01T10:45:25;100201.44;;;32.16;49.91
9415;BME280;4746;35.664;139.738;2023-08-01T10:47:54;100198.84;;;32.05;49.71
9415;BME280;4746;35.664;139.738;2023-08-01T10:50:22;100189.69;;;31.87;50.34
9415;BME280;4746;35.664;139.738;2023-08-01T10:52:49;100190.88;;;32.05;49.89
9415;BME280;4746;35.664;139.738;2023-08-01T10:55:38;100185.06;;;32.00;50.09
9415;BME280;4746;35.664;139.738;2023-08-01T10:58:06;100187.16;;;31.86;50.94
9415;BME280;4746;35.664;139.738;2023-08-01T11:00:34;100191.59;;;31.85;50.85
9415;BME280;4746;35.664;139.738;2023-08-01T11:03:01;100191.00;;;31.82;50.71
9415;BME280;4746;35.664;139.738;2023-08-01T11:05:29;100180.06;;;31.75;50.70
9415;BME280;4746;35.664;139.738;2023-08-01T11:08:00;100185.47;;;31.74;50.90
9415;BME280;4746;35.664;139.738;2023-08-01T11:10:32;100187.28;;;31.73;50.80
9415;BME280;4746;35.664;139.738;2023-08-01T11:13:01;100197.41;;;31.69;51.25
9415;BME280;4746;35.664;139.738;2023-08-01T11:15:29;100205.75;;;31.64;51.10
9415;BME280;4746;35.664;139.738;2023-08-01T11:17:56;100209.44;;;31.62;50.99
9415;BME280;4746;35.664;139.738;2023-08-01T11:20:25;100218.63;;;31.58;51.36
9415;BME280;4746;35.664;139.738;2023-08-01T11:23:01;100219.09;;;31.52;51.89
9415;BME280;4746;35.664;139.738;2023-08-01T11:25:42;100199.44;;;31.43;52.03
9415;BME280;4746;35.664;139.738;2023-08-01T11:28:16;100189.66;;;31.33;52.93
9415;BME280;4746;35.664;139.738;2023-08-01T11:30:44;100206.78;;;31.29;53.49
9415;BME280;4746;35.664;139.738;2023-08-01T11:33:22;100204.25;;;31.27;53.33
9415;BME280;4746;35.664;139.738;2023-08-01T11:35:57;100209.91;;;31.23;53.76
9415;BME280;4746;35.664;139.738;2023-08-01T11:38:30;100194.47;;;31.17;53.98
9415;BME280;4746;35.664;139.738;2023-08-01T11:41:03;100178.09;;;31.12;54.56
9415;BME280;4746;35.664;139.738;2023-08-01T11:43:43;100190.38;;;31.13;54.42
9415;BME280;4746;35.664;139.738;2023-08-01T11:46:13;100192.56;;;31.08;54.51
9415;BME280;4746;35.664;139.738;2023-08-01T11:48:46;100185.56;;;31.07;55.17
9415;BME280;4746;35.664;139.738;2023-08-01T11:51:14;100177.84;;;31.04;55.62
9415;BME280;4746;35.664;139.738;2023-08-01T11:53:41;100188.91;;;31.09;55.16
9415;BME280;4746;35.664;139.738;2023-08-01T11:56:20;100189.53;;;31.12;54.84
9415;BME280;4746;35.664;139.738;2023-08-01T11:58:48;100184.69;;;31.06;55.49
9415;BME280;4746;35.664;139.738;2023-08-01T12:01:16;100186.03;;;31.01;55.86
9415;BME280;4746;35.664;139.738;2023-08-01T12:03:52;100196.63;;;31.01;55.88
9415;BME280;4746;35.664;139.738;2023-08-01T12:06:23;100196.19;;;30.95;55.94
9415;BME280;4746;35.664;139.738;2023-08-01T12:08:54;100185.84;;;30.92;55.78
9415;BME280;4746;35.664;139.738;2023-08-01T12:11:28;100191.97;;;30.92;55.61
9415;BME280;4746;35.664;139.738;2023-08-01T12:14:15;100188.16;;;30.96;56.07
9415;BME280;4746;35.664;139.738;2023-08-01T12:16:47;100184.78;;;30.94;55.91
9415;BME280;4746;35.664;139.738;2023-08-01T12:19:19;100197.06;;;30.95;56.20
9415;BME280;4746;35.664;139.738;2023-08-01T12:21:48;100190.06;;;30.94;56.30
9415;BME280;4746;35.664;139.738;2023-08-01T12:24:15;100194.28;;;30.97;56.44
9415;BME280;4746;35.664;139.738;2023-08-01T12:26:43;100195.88;;;30.99;56.41
9415;BME280;4746;35.664;139.738;2023-08-01T12:29:10;100184.34;;;31.00;56.34
9415;BME280;4746;35.664;139.738;2023-08-01T12:31:38;100188.81;;;31.00;56.44
9415;BME280;4746;35.664;139.738;2023-08-01T12:34:06;100177.56;;;30.96;56.56
9415;BME280;4746;35.664;139.738;2023-08-01T12:36:34;100181.16;;;30.95;56.26
9415;BME280;4746;35.664;139.738;2023-08-01T12:39:01;100197.06;;;30.95;56.84
9415;BME280;4746;35.664;139.738;2023-08-01T12:41:29;100188.72;;;30.89;56.53
9415;BME280;4746;35.664;139.738;2023-08-01T12:43:56;100185.50;;;30.85;56.73
9415;BME280;4746;35.664;139.738;2023-08-01T12:46:24;100192.09;;;30.80;57.32
9415;BME280;4746;35.664;139.738;2023-08-01T12:48:51;100191.47;;;30.76;57.30
9415;BME280;4746;35.664;139.738;2023-08-01T12:51:19;100197.00;;;30.73;57.58
9415;BME280;4746;35.664;139.738;2023-08-01T12:53:47;100186.75;;;30.69;57.67
9415;BME280;4746;35.664;139.738;2023-08-01T12:56:14;100192.63;;;30.61;57.80
9415;BME280;4746;35.664;139.738;2023-08-01T12:58:42;100189.47;;;30.56;58.18